sensor_id;sensor_type;location;lat;lon;timestamp;P1;durP1;ratioP1;P2;durP2;ratioP2
58615;SDS011;44385;51.992;4.206;2023-03-15T00:00:38;4.88;;;1.05;;
58615;SDS011;44385;51.992;4.206;2023-03-15T00:03:06;6.43;;;0.98;;
58615;SDS011;44385;51.992;4.206;2023-03-15T00:05:34;3.75;;;1.33;;
58615;SDS011;44385;51.992;4.206;2023-03-15T00:08:01;3.53;;;0.80;;
58615;SDS011;44385;51.992;4.206;2023-03-15T00:10:27;4.95;;;1.35;;
58615;SDS011;44385;51.992;4.206;2023-03-15T00:12:54;5.05;;;1.40;;
58615;SDS011;44385;51.992;4.206;2023-03-15T00:15:21;7.18;;;1.30;;
58615;SDS011;44385;51.992;4.206;2023-03-15T00:17:48;7.22;;;1.35;;
58615;SDS011;44385;51.992;4.206;2023-03-15T00:20:14;5.00;;;1.10;;
58615;SDS011;44385;51.992;4.206;2023-03-15T00:22:44;6.63;;;1.45;;
58615;SDS011;44385;51.992;4.206;2023-03-15T00:25:11;4.68;;;0.90;;
58615;SDS011;44385;51.992;4.206;2023-03-15T00:27:37;7.53;;;1.33;;
58615;SDS011;44385;51.992;4.206;2023-03-15T00:30:04;4.25;;;0.88;;
58615;SDS011;44385;51.992;4.206;2023-03-15T00:32:30;1.80;;;0.73;;
58615;SDS011;44385;51.992;4.206;2023-03-15T00:34:57;1.98;;;0.73;;
58615;SDS011;44385;51.992;4.206;2023-03-15T00:37:26;3.67;;;0.90;;
58615;SDS011;44385;51.992;4.206;2023-03-15T00:39:54;5.20;;;0.63;;
58615;SDS011;44385;51.992;4.206;2023-03-15T00:42:21;3.33;;;0.70;;
58615;SDS011;44385;51.992;4.206;2023-03-15T00:44:51;3.75;;;0.88;;
58615;SDS011;44385;51.992;4.206;2023-03-15T00:47:18;4.72;;;1.15;;
58615;SDS011;44385;51.992;4.206;2023-03-15T00:49:44;3.45;;;0.68;;
58615;SDS011;44385;51.992;4.206;2023-03-15T00:52:11;2.70;;;0.80;;
58615;SDS011;44385;51.992;4.206;2023-03-15T00:54:38;6.35;;;1.10;;
58615;SDS011;44385;51.992;4.206;2023-03-15T00:57:07;3.25;;;1.02;;
58615;SDS011;44385;51.992;4.206;2023-03-15T00:59:33;2.42;;;0.80;;
58615;SDS011;44385;51.992;4.206;2023-03-15T01:02:00;2.53;;;0.75;;
58615;SDS011;44385;51.992;4.206;2023-03-15T01:04:26;3.55;;;0.80;;
58615;SDS011;44385;51.992;4.206;2023-03-15T01:06:53;5.00;;;0.82;;
58615;SDS011;44385;51.992;4.206;2023-03-15T01:09:19;4.32;;;0.90;;
58615;SDS011;44385;51.992;4.206;2023-03-15T01:11:47;3.47;;;1.13;;
58615;SDS011;44385;51.992;4.206;2023-03-15T01:14:15;4.57;;;1.00;;
58615;SDS011;44385;51.992;4.206;2023-03-15T01:16:42;4.55;;;1.00;;
58615;SDS011;44385;51.992;4.206;2023-03-15T01:19:09;6.85;;;1.00;;
58615;SDS011;44385;51.992;4.206;2023-03-15T01:21:36;3.13;;;0.75;;
58615;SDS011;44385;51.992;4.206;2023-03-15T01:24:03;3.95;;;1.00;;
58615;SDS011;44385;51.992;4.206;2023-03-15T01:26:29;3.63;;;1.08;;
58615;SDS011;44385;51.992;4.206;2023-03-15T01:28:56;5.85;;;0.90;;
58615;SDS011;44385;51.992;4.206;2023-03-15T01:31:25;5.43;;;1.10;;
58615;SDS011;44385;51.992;4.206;2023-03-15T01:33:51;8.77;;;1.42;;
58615;SDS011;44385;51.992;4.206;2023-03-15T01:36:18;5.28;;;0.93;;
58615;SDS011;44385;51.992;4.206;2023-03-15T01:38:44;4.13;;;0.93;;
58615;SDS011;44385;51.992;4.206;2023-03-15T01:41:11;5.57;;;1.35;;
58615;SDS011;44385;51.992;4.206;2023-03-15T01:43:38;3.13;;;1.02;;
58615;SDS011;44385;51.992;4.206;2023-03-15T01:46:17;7.30;;;1.42;;
58615;SDS011;44385;51.992;4.206;2023-03-15T01:48:49;3.83;;;1.00;;
58615;SDS011;44385;51.992;4.206;2023-03-15T01:51:17;4.80;;;1.48;;
58615;SDS011;44385;51.992;4.206;2023-03-15T01:53:48;6.85;;;1.30;;
58615;SDS011;44385;51.992;4.206;2023-03-15T01:56:15;4.15;;;1.13;;
58615;SDS011;44385;51.992;4.206;2023-03-15T01:58:42;6.20;;;0.93;;
58615;SDS011;44385;51.992;4.206;2023-03-15T02:01:10;5.35;;;1.00;;
58615;SDS011;44385;51.992;4.206;2023-03-15T02:03:38;4.78;;;1.05;;
58615;SDS011;44385;51.992;4.206;2023-03-15T02:06:12;3.25;;;0.95;;
58615;SDS011;44385;51.992;4.206;2023-03-15T02:08:42;7.25;;;1.40;;
58615;SDS011;44385;51.992;4.206;2023-03-15T02:11:10;3.08;;;0.80;;
58615;SDS011;44385;51.992;4.206;2023-03-15T02:13:37;2.65;;;1.08;;
58615;SDS011;44385;51.992;4.206;2023-03-15T02:16:04;7.43;;;1.05;;
58615;SDS011;44385;51.992;4.206;2023-03-15T02:18:31;6.13;;;1.20;;
58615;SDS011;44385;51.992;4.206;2023-03-15T02:21:01;3.13;;;1.47;;
58615;SDS011;44385;51.992;4.206;2023-03-15T02:23:29;2.63;;;1.10;;
58615;SDS011;44385;51.992;4.206;2023-03-15T02:25:59;3.78;;;0.90;;
58615;SDS011;44385;51.992;4.206;2023-03-15T02:28:28;1.55;;;0.80;;
58615;SDS011;44385;51.992;4.206;2023-03-15T02:30:55;2.35;;;0.70;;
58615;SDS011;44385;51.992;4.206;2023-03-15T02:33:23;4.85;;;1.00;;
58615;SDS011;44385;51.992;4.206;2023-03-15T02:35:51;3.58;;;0.77;;
58615;SDS011;44385;51.992;4.206;2023-03-15T02:38:17;1.52;;;0.70;;
58615;SDS011;44385;51.992;4.206;2023-03-15T02:40:47;1.55;;;0.68;;
58615;SDS011;44385;51.992;4.206;2023-03-15T02:43:15;6.65;;;1.17;;
58615;SDS011;44385;51.992;4.206;2023-03-15T02:45:44;4.05;;;0.98;;
58615;SDS011;44385;51.992;4.206;2023-03-15T02:48:10;5.10;;;1.17;;
58615;SDS011;44385;51.992;4.206;2023-03-15T02:50:37;2.85;;;0.82;;
58615;SDS011;44385;51.992;4.206;2023-03-15T02:53:03;5.78;;;1.15;;
58615;SDS011;44385;51.992;4.206;2023-03-15T02:55:30;4.07;;;1.20;;
58615;SDS011;44385;51.992;4.206;2023-03-15T02:57:57;5.13;;;1.42;;
58615;SDS011;44385;51.992;4.206;2023-03-15T03:00:23;6.20;;;1.20;;
58615;SDS011;44385;51.992;4.206;2023-03-15T03:02:51;8.57;;;1.75;;
58615;SDS011;44385;51.992;4.206;2023-03-15T03:05:18;3.92;;;1.20;;
58615;SDS011;44385;51.992;4.206;2023-03-15T03:07:44;7.22;;;1.83;;
58615;SDS011;44385;51.992;4.206;2023-03-15T03:10:13;6.72;;;1.50;;
58615;SDS011;44385;51.992;4.206;2023-03-15T03:12:40;6.68;;;1.35;;
58615;SDS011;44385;51.992;4.206;2023-03-15T03:15:07;4.43;;;1.23;;
58615;SDS011;44385;51.992;4.206;2023-03-15T03:17:34;6.70;;;1.52;;
58615;SDS011;44385;51.992;4.206;2023-03-15T03:20:03;4.25;;;1.20;;
58615;SDS011;44385;51.992;4.206;2023-03-15T03:22:32;7.28;;;1.60;;
58615;SDS011;44385;51.992;4.206;2023-03-15T03:24:58;7.93;;;1.70;;
58615;SDS011;44385;51.992;4.206;2023-03-15T03:27:24;5.35;;;1.20;;
58615;SDS011;44385;51.992;4.206;2023-03-15T03:29:51;7.35;;;1.30;;
58615;SDS011;44385;51.992;4.206;2023-03-15T03:32:17;4.47;;;1.65;;
58615;SDS011;44385;51.992;4.206;2023-03-15T03:34:44;6.40;;;1.65;;
58615;SDS011;44385;51.992;4.206;2023-03-15T03:37:13;6.28;;;1.85;;
58615;SDS011;44385;51.992;4.206;2023-03-15T03:39:40;4.43;;;1.30;;
58615;SDS011;44385;51.992;4.206;2023-03-15T03:42:07;4.55;;;1.23;;
58615;SDS011;44385;51.992;4.206;2023-03-15T03:44:33;8.27;;;1.55;;
58615;SDS011;44385;51.992;4.206;2023-03-15T03:46:59;8.43;;;1.33;;
58615;SDS011;44385;51.992;4.206;2023-03-15T03:49:26;9.15;;;1.98;;
58615;SDS011;44385;51.992;4.206;2023-03-15T03:51:52;8.82;;;1.55;;
58615;SDS011;44385;51.992;4.206;2023-03-15T03:54:20;8.57;;;1.50;;
58615;SDS011;44385;51.992;4.206;2023-03-15T03:56:49;7.50;;;1.67;;
58615;SDS011;44385;51.992;4.206;2023-03-15T03:59:15;6.85;;;1.48;;
58615;SDS011;44385;51.992;4.206;2023-03-15T04:01:41;9.38;;;1.40;;
58615;SDS011;44385;51.992;4.206;2023-03-15T04:04:08;4.90;;;1.48;;
58615;SDS011;44385;51.992;4.206;2023-03-15T04:06:38;8.15;;;1.50;;
58615;SDS011;44385;51.992;4.206;2023-03-15T04:09:09;6.53;;;1.50;;
58615;SDS011;44385;51.992;4.206;2023-03-15T04:11:38;5.43;;;1.35;;
58615;SDS011;44385;51.992;4.206;2023-03-15T04:14:06;8.90;;;1.55;;
58615;SDS011;44385;51.992;4.206;2023-03-15T04:16:33;9.43;;;1.40;;
58615;SDS011;44385;51.992;4.206;2023-03-15T04:18:59;3.95;;;1.48;;
58615;SDS011;44385;51.992;4.206;2023-03-15T04:21:25;4.85;;;1.40;;
58615;SDS011;44385;51.992;4.206;2023-03-15T04:23:56;6.53;;;1.45;;
58615;SDS011;44385;51.992;4.206;2023-03-15T04:26:22;11.93;;;2.20;;
58615;SDS011;44385;51.992;4.206;2023-03-15T04:28:52;11.80;;;2.30;;
58615;SDS011;44385;51.992;4.206;2023-03-15T04:31:18;9.27;;;2.17;;
58615;SDS011;44385;51.992;4.206;2023-03-15T04:33:44;11.88;;;2.45;;
58615;SDS011;44385;51.992;4.206;2023-03-15T04:36:11;8.45;;;2.22;;
58615;SDS011;44385;51.992;4.206;2023-03-15T04:38:42;11.23;;;2.33;;
58615;SDS011;44385;51.992;4.206;2023-03-15T04:41:11;9.27;;;1.73;;
58615;SDS011;44385;51.992;4.206;2023-03-15T04:43:37;8.75;;;2.05;;
58615;SDS011;44385;51.992;4.206;2023-03-15T04:46:05;14.20;;;2.15;;
58615;SDS011;44385;51.992;4.206;2023-03-15T04:48:32;9.75;;;1.95;;
58615;SDS011;44385;51.992;4.206;2023-03-15T04:50:58;9.70;;;1.65;;
58615;SDS011;44385;51.992;4.206;2023-03-15T04:53:24;13.77;;;2.20;;
58615;SDS011;44385;51.992;4.206;2023-03-15T04:55:51;8.45;;;1.90;;
58615;SDS011;44385;51.992;4.206;2023-03-15T04:58:18;7.82;;;1.67;;
58615;SDS011;44385;51.992;4.206;2023-03-15T05:00:44;11.60;;;2.25;;
58615;SDS011;44385;51.992;4.206;2023-03-15T05:03:12;6.43;;;1.90;;
58615;SDS011;44385;51.992;4.206;2023-03-15T05:05:38;7.18;;;2.00;;
58615;SDS011;44385;51.992;4.206;2023-03-15T05:08:05;9.90;;;2.50;;
58615;SDS011;44385;51.992;4.206;2023-03-15T05:10:31;9.35;;;1.73;;
58615;SDS011;44385;51.992;4.206;2023-03-15T05:12:58;9.32;;;2.08;;
58615;SDS011;44385;51.992;4.206;2023-03-15T05:15:25;9.45;;;2.15;;
58615;SDS011;44385;51.992;4.206;2023-03-15T05:17:51;5.18;;;1.55;;
58615;SDS011;44385;51.992;4.206;2023-03-15T05:20:21;10.43;;;2.08;;
58615;SDS011;44385;51.992;4.206;2023-03-15T05:22:49;9.98;;;2.08;;
58615;SDS011;44385;51.992;4.206;2023-03-15T05:25:17;6.47;;;1.77;;
58615;SDS011;44385;51.992;4.206;2023-03-15T05:27:43;11.30;;;2.55;;
58615;SDS011;44385;51.992;4.206;2023-03-15T05:30:10;6.20;;;1.77;;
58615;SDS011;44385;51.992;4.206;2023-03-15T05:32:38;8.65;;;1.98;;
58615;SDS011;44385;51.992;4.206;2023-03-15T05:35:09;7.22;;;2.10;;
58615;SDS011;44385;51.992;4.206;2023-03-15T05:37:37;11.38;;;2.20;;
58615;SDS011;44385;51.992;4.206;2023-03-15T05:40:04;14.35;;;2.20;;
58615;SDS011;44385;51.992;4.206;2023-03-15T05:42:32;9.75;;;2.10;;
58615;SDS011;44385;51.992;4.206;2023-03-15T05:44:58;8.68;;;2.50;;
58615;SDS011;44385;51.992;4.206;2023-03-15T05:47:25;8.35;;;2.00;;
58615;SDS011;44385;51.992;4.206;2023-03-15T05:49:51;15.05;;;2.75;;
58615;SDS011;44385;51.992;4.206;2023-03-15T05:52:18;12.55;;;2.78;;
58615;SDS011;44385;51.992;4.206;2023-03-15T05:54:45;7.50;;;2.42;;
58615;SDS011;44385;51.992;4.206;2023-03-15T05:57:12;14.75;;;2.58;;
58615;SDS011;44385;51.992;4.206;2023-03-15T05:59:39;9.27;;;2.90;;
58615;SDS011;44385;51.992;4.206;2023-03-15T06:02:06;9.75;;;2.72;;
58615;SDS011;44385;51.992;4.206;2023-03-15T06:04:32;11.65;;;3.60;;
58615;SDS011;44385;51.992;4.206;2023-03-15T06:07:00;16.05;;;3.63;;
58615;SDS011;44385;51.992;4.206;2023-03-15T06:09:26;13.82;;;3.42;;
58615;SDS011;44385;51.992;4.206;2023-03-15T06:11:54;8.32;;;3.50;;
58615;SDS011;44385;51.992;4.206;2023-03-15T06:14:21;11.35;;;2.67;;
58615;SDS011;44385;51.992;4.206;2023-03-15T06:16:48;7.55;;;2.20;;
58615;SDS011;44385;51.992;4.206;2023-03-15T06:19:14;6.07;;;2.05;;
58615;SDS011;44385;51.992;4.206;2023-03-15T06:21:41;8.30;;;3.00;;
58615;SDS011;44385;51.992;4.206;2023-03-15T06:24:07;8.23;;;2.63;;
58615;SDS011;44385;51.992;4.206;2023-03-15T06:26:33;8.98;;;2.40;;
58615;SDS011;44385;51.992;4.206;2023-03-15T06:29:01;12.52;;;3.22;;
58615;SDS011;44385;51.992;4.206;2023-03-15T06:31:27;12.38;;;3.47;;
58615;SDS011;44385;51.992;4.206;2023-03-15T06:33:54;13.68;;;3.03;;
58615;SDS011;44385;51.992;4.206;2023-03-15T06:36:26;11.27;;;3.58;;
58615;SDS011;44385;51.992;4.206;2023-03-15T06:38:53;9.05;;;3.08;;
58615;SDS011;44385;51.992;4.206;2023-03-15T06:41:19;12.65;;;2.25;;
58615;SDS011;44385;51.992;4.206;2023-03-15T06:43:46;7.20;;;2.83;;
58615;SDS011;44385;51.992;4.206;2023-03-15T06:46:14;9.07;;;3.38;;
58615;SDS011;44385;51.992;4.206;2023-03-15T06:48:41;5.72;;;1.65;;
58615;SDS011;44385;51.992;4.206;2023-03-15T06:51:07;7.95;;;2.00;;
58615;SDS011;44385;51.992;4.206;2023-03-15T06:53:33;11.60;;;2.88;;
58615;SDS011;44385;51.992;4.206;2023-03-15T06:56:00;9.63;;;3.13;;
58615;SDS011;44385;51.992;4.206;2023-03-15T06:58:26;8.07;;;3.38;;
58615;SDS011;44385;51.992;4.206;2023-03-15T07:00:52;5.13;;;2.28;;
58615;SDS011;44385;51.992;4.206;2023-03-15T07:03:20;8.32;;;2.42;;
58615;SDS011;44385;51.992;4.206;2023-03-15T07:05:47;7.07;;;2.40;;
58615;SDS011;44385;51.992;4.206;2023-03-15T07:08:16;7.43;;;2.88;;
58615;SDS011;44385;51.992;4.206;2023-03-15T07:10:42;7.68;;;2.42;;
58615;SDS011;44385;51.992;4.206;2023-03-15T07:13:09;10.07;;;2.90;;
58615;SDS011;44385;51.992;4.206;2023-03-15T07:15:37;9.43;;;2.60;;
58615;SDS011;44385;51.992;4.206;2023-03-15T07:18:04;6.10;;;2.60;;
58615;SDS011;44385;51.992;4.206;2023-03-15T07:20:32;10.48;;;2.83;;
58615;SDS011;44385;51.992;4.206;2023-03-15T07:22:58;10.50;;;2.83;;
58615;SDS011;44385;51.992;4.206;2023-03-15T07:25:25;10.45;;;2.67;;
58615;SDS011;44385;51.992;4.206;2023-03-15T07:27:51;8.80;;;2.60;;
58615;SDS011;44385;51.992;4.206;2023-03-15T07:30:18;8.52;;;2.70;;
58615;SDS011;44385;51.992;4.206;2023-03-15T07:32:45;9.57;;;2.83;;
58615;SDS011;44385;51.992;4.206;2023-03-15T07:35:12;11.52;;;3.10;;
58615;SDS011;44385;51.992;4.206;2023-03-15T07:37:40;12.45;;;2.78;;
58615;SDS011;44385;51.992;4.206;2023-03-15T07:40:06;8.90;;;3.13;;
58615;SDS011;44385;51.992;4.206;2023-03-15T07:42:34;9.48;;;2.70;;
58615;SDS011;44385;51.992;4.206;2023-03-15T07:45:01;10.63;;;2.97;;
58615;SDS011;44385;51.992;4.206;2023-03-15T07:47:27;8.80;;;2.70;;
58615;SDS011;44385;51.992;4.206;2023-03-15T07:49:53;13.80;;;3.28;;
58615;SDS011;44385;51.992;4.206;2023-03-15T07:52:23;16.50;;;3.67;;
58615;SDS011;44385;51.992;4.206;2023-03-15T07:54:51;7.30;;;3.05;;
58615;SDS011;44385;51.992;4.206;2023-03-15T07:57:18;8.65;;;2.75;;
58615;SDS011;44385;51.992;4.206;2023-03-15T07:59:44;8.75;;;2.70;;
58615;SDS011;44385;51.992;4.206;2023-03-15T08:02:10;10.80;;;2.88;;
58615;SDS011;44385;51.992;4.206;2023-03-15T08:04:37;9.68;;;2.88;;
58615;SDS011;44385;51.992;4.206;2023-03-15T08:07:04;8.95;;;2.53;;
58615;SDS011;44385;51.992;4.206;2023-03-15T08:09:30;8.07;;;2.97;;
58615;SDS011;44385;51.992;4.206;2023-03-15T08:12:00;9.40;;;3.13;;
58615;SDS011;44385;51.992;4.206;2023-03-15T08:14:26;5.63;;;2.15;;
58615;SDS011;44385;51.992;4.206;2023-03-15T08:16:53;9.25;;;2.58;;
58615;SDS011;44385;51.992;4.206;2023-03-15T08:19:19;12.65;;;3.55;;
58615;SDS011;44385;51.992;4.206;2023-03-15T08:21:46;11.63;;;3.55;;
58615;SDS011;44385;51.992;4.206;2023-03-15T08:24:13;9.75;;;3.35;;
58615;SDS011;44385;51.992;4.206;2023-03-15T08:26:40;11.10;;;2.78;;
58615;SDS011;44385;51.992;4.206;2023-03-15T08:29:08;10.50;;;3.15;;
58615;SDS011;44385;51.992;4.206;2023-03-15T08:31:35;8.68;;;3.17;;
58615;SDS011;44385;51.992;4.206;2023-03-15T08:34:01;9.65;;;3.72;;
58615;SDS011;44385;51.992;4.206;2023-03-15T08:36:28;7.50;;;2.95;;
58615;SDS011;44385;51.992;4.206;2023-03-15T08:38:56;7.65;;;2.83;;
58615;SDS011;44385;51.992;4.206;2023-03-15T08:41:22;8.05;;;2.20;;
58615;SDS011;44385;51.992;4.206;2023-03-15T08:43:52;14.02;;;2.92;;
58615;SDS011;44385;51.992;4.206;2023-03-15T08:46:19;9.48;;;3.15;;
58615;SDS011;44385;51.992;4.206;2023-03-15T08:48:47;12.60;;;2.85;;
58615;SDS011;44385;51.992;4.206;2023-03-15T08:51:13;8.98;;;2.80;;
58615;SDS011;44385;51.992;4.206;2023-03-15T08:53:39;7.72;;;3.10;;
58615;SDS011;44385;51.992;4.206;2023-03-15T08:56:06;6.50;;;2.35;;
58615;SDS011;44385;51.992;4.206;2023-03-15T08:58:33;4.40;;;2.08;;
58615;SDS011;44385;51.992;4.206;2023-03-15T09:00:59;6.47;;;1.95;;
58615;SDS011;44385;51.992;4.206;2023-03-15T09:03:27;5.95;;;2.00;;
58615;SDS011;44385;51.992;4.206;2023-03-15T09:05:54;6.72;;;1.98;;
58615;SDS011;44385;51.992;4.206;2023-03-15T09:08:21;6.65;;;1.63;;
58615;SDS011;44385;51.992;4.206;2023-03-15T09:10:52;8.15;;;1.83;;
58615;SDS011;44385;51.992;4.206;2023-03-15T09:13:18;4.00;;;1.52;;
58615;SDS011;44385;51.992;4.206;2023-03-15T09:15:44;5.30;;;1.42;;
58615;SDS011;44385;51.992;4.206;2023-03-15T09:18:11;6.82;;;1.60;;
58615;SDS011;44385;51.992;4.206;2023-03-15T09:20:38;5.03;;;1.38;;
58615;SDS011;44385;51.992;4.206;2023-03-15T09:23:05;5.45;;;1.58;;
58615;SDS011;44385;51.992;4.206;2023-03-15T09:25:32;6.05;;;1.58;;
58615;SDS011;44385;51.992;4.206;2023-03-15T09:27:59;5.97;;;1.38;;
58615;SDS011;44385;51.992;4.206;2023-03-15T09:30:25;8.68;;;2.00;;
58615;SDS011;44385;51.992;4.206;2023-03-15T09:32:53;5.03;;;1.30;;
58615;SDS011;44385;51.992;4.206;2023-03-15T09:35:19;8.07;;;1.83;;
58615;SDS011;44385;51.992;4.206;2023-03-15T09:37:48;4.20;;;1.80;;
58615;SDS011;44385;51.992;4.206;2023-03-15T09:40:16;5.90;;;2.08;;
58615;SDS011;44385;51.992;4.206;2023-03-15T09:42:49;4.95;;;1.27;;
58615;SDS011;44385;51.992;4.206;2023-03-15T09:45:20;3.05;;;1.10;;
58615;SDS011;44385;51.992;4.206;2023-03-15T09:47:53;3.67;;;1.05;;
58615;SDS011;44385;51.992;4.206;2023-03-15T09:50:24;3.67;;;1.13;;
58615;SDS011;44385;51.992;4.206;2023-03-15T09:52:54;5.25;;;1.73;;
58615;SDS011;44385;51.992;4.206;2023-03-15T09:55:22;7.90;;;1.75;;
58615;SDS011;44385;51.992;4.206;2023-03-15T09:57:49;7.57;;;1.42;;
58615;SDS011;44385;51.992;4.206;2023-03-15T10:00:18;3.90;;;1.50;;
58615;SDS011;44385;51.992;4.206;2023-03-15T10:02:47;5.80;;;1.73;;
58615;SDS011;44385;51.992;4.206;2023-03-15T10:05:18;5.43;;;1.65;;
58615;SDS011;44385;51.992;4.206;2023-03-15T10:07:45;4.30;;;1.40;;
58615;SDS011;44385;51.992;4.206;2023-03-15T10:10:17;6.93;;;2.25;;
58615;SDS011;44385;51.992;4.206;2023-03-15T10:12:45;6.00;;;1.17;;
58615;SDS011;44385;51.992;4.206;2023-03-15T10:15:18;5.40;;;1.85;;
58615;SDS011;44385;51.992;4.206;2023-03-15T10:17:47;5.72;;;1.40;;
58615;SDS011;44385;51.992;4.206;2023-03-15T10:22:43;2.65;;;1.10;;
58615;SDS011;44385;51.992;4.206;2023-03-15T10:25:13;3.20;;;1.20;;
58615;SDS011;44385;51.992;4.206;2023-03-15T10:27:44;4.83;;;1.13;;
58615;SDS011;44385;51.992;4.206;2023-03-15T10:30:15;4.95;;;1.23;;
58615;SDS011;44385;51.992;4.206;2023-03-15T10:32:42;3.67;;;1.08;;
58615;SDS011;44385;51.992;4.206;2023-03-15T10:35:11;6.55;;;1.42;;
58615;SDS011;44385;51.992;4.206;2023-03-15T10:37:38;5.53;;;1.42;;
58615;SDS011;44385;51.992;4.206;2023-03-15T10:40:06;4.20;;;1.33;;
58615;SDS011;44385;51.992;4.206;2023-03-15T10:42:39;2.83;;;1.42;;
58615;SDS011;44385;51.992;4.206;2023-03-15T10:45:17;5.53;;;1.58;;
58615;SDS011;44385;51.992;4.206;2023-03-15T10:47:45;5.18;;;2.33;;
58615;SDS011;44385;51.992;4.206;2023-03-15T10:50:15;4.78;;;1.60;;
58615;SDS011;44385;51.992;4.206;2023-03-15T10:52:44;5.38;;;1.83;;
58615;SDS011;44385;51.992;4.206;2023-03-15T10:55:11;1.98;;;1.10;;
58615;SDS011;44385;51.992;4.206;2023-03-15T10:57:38;2.70;;;1.50;;
58615;SDS011;44385;51.992;4.206;2023-03-15T11:00:12;2.90;;;1.20;;
58615;SDS011;44385;51.992;4.206;2023-03-15T11:02:48;2.22;;;1.35;;
58615;SDS011;44385;51.992;4.206;2023-03-15T11:05:16;2.58;;;1.10;;
58615;SDS011;44385;51.992;4.206;2023-03-15T11:07:52;3.50;;;1.33;;
58615;SDS011;44385;51.992;4.206;2023-03-15T11:10:20;3.13;;;1.52;;
58615;SDS011;44385;51.992;4.206;2023-03-15T11:12:47;4.18;;;1.13;;
58615;SDS011;44385;51.992;4.206;2023-03-15T11:15:13;4.28;;;1.30;;
58615;SDS011;44385;51.992;4.206;2023-03-15T11:17:41;4.50;;;1.40;;
58615;SDS011;44385;51.992;4.206;2023-03-15T11:20:15;4.05;;;1.38;;
58615;SDS011;44385;51.992;4.206;2023-03-15T11:22:45;3.05;;;1.17;;
58615;SDS011;44385;51.992;4.206;2023-03-15T11:25:12;6.60;;;1.55;;
58615;SDS011;44385;51.992;4.206;2023-03-15T11:27:39;2.97;;;1.10;;
58615;SDS011;44385;51.992;4.206;2023-03-15T11:30:11;2.38;;;1.02;;
58615;SDS011;44385;51.992;4.206;2023-03-15T11:32:38;2.45;;;0.90;;
58615;SDS011;44385;51.992;4.206;2023-03-15T11:35:05;2.55;;;0.90;;
58615;SDS011;44385;51.992;4.206;2023-03-15T11:37:36;5.55;;;1.60;;
58615;SDS011;44385;51.992;4.206;2023-03-15T11:40:04;2.78;;;1.02;;
58615;SDS011;44385;51.992;4.206;2023-03-15T11:45:00;5.93;;;1.10;;
58615;SDS011;44385;51.992;4.206;2023-03-15T11:47:31;4.43;;;1.10;;
58615;SDS011;44385;51.992;4.206;2023-03-15T11:50:00;5.22;;;1.33;;
58615;SDS011;44385;51.992;4.206;2023-03-15T11:52:26;3.65;;;1.25;;
58615;SDS011;44385;51.992;4.206;2023-03-15T11:54:56;5.10;;;1.10;;
58615;SDS011;44385;51.992;4.206;2023-03-15T11:59:49;2.75;;;1.08;;
58615;SDS011;44385;51.992;4.206;2023-03-15T12:02:35;2.05;;;1.05;;
58615;SDS011;44385;51.992;4.206;2023-03-15T12:05:03;2.72;;;1.10;;
58615;SDS011;44385;51.992;4.206;2023-03-15T12:09:58;2.88;;;1.05;;
58615;SDS011;44385;51.992;4.206;2023-03-15T12:12:44;5.15;;;1.10;;
58615;SDS011;44385;51.992;4.206;2023-03-15T12:17:55;4.38;;;1.00;;
58615;SDS011;44385;51.992;4.206;2023-03-15T12:20:26;2.35;;;0.90;;
58615;SDS011;44385;51.992;4.206;2023-03-15T12:23:03;4.60;;;1.00;;
58615;SDS011;44385;51.992;4.206;2023-03-15T12:28:03;4.30;;;1.15;;
58615;SDS011;44385;51.992;4.206;2023-03-15T12:30:31;3.13;;;1.38;;
58615;SDS011;44385;51.992;4.206;2023-03-15T12:32:58;3.50;;;0.80;;
58615;SDS011;44385;51.992;4.206;2023-03-15T12:35:27;2.58;;;0.85;;
58615;SDS011;44385;51.992;4.206;2023-03-15T12:37:54;2.60;;;0.90;;
58615;SDS011;44385;51.992;4.206;2023-03-15T12:40:28;2.53;;;0.80;;
58615;SDS011;44385;51.992;4.206;2023-03-15T12:43:01;2.42;;;0.60;;
58615;SDS011;44385;51.992;4.206;2023-03-15T12:45:35;2.33;;;0.60;;
58615;SDS011;44385;51.992;4.206;2023-03-15T12:48:18;2.33;;;0.68;;
58615;SDS011;44385;51.992;4.206;2023-03-15T12:50:50;3.10;;;1.08;;
58615;SDS011;44385;51.992;4.206;2023-03-15T12:53:18;3.05;;;0.90;;
58615;SDS011;44385;51.992;4.206;2023-03-15T12:55:47;3.53;;;0.80;;
58615;SDS011;44385;51.992;4.206;2023-03-15T12:58:15;1.88;;;0.70;;
58615;SDS011;44385;51.992;4.206;2023-03-15T13:00:42;3.40;;;0.90;;
58615;SDS011;44385;51.992;4.206;2023-03-15T13:03:10;3.42;;;0.90;;
58615;SDS011;44385;51.992;4.206;2023-03-15T13:05:44;3.05;;;0.82;;
58615;SDS011;44385;51.992;4.206;2023-03-15T13:08:16;3.10;;;1.10;;
58615;SDS011;44385;51.992;4.206;2023-03-15T13:13:50;5.53;;;1.48;;
58615;SDS011;44385;51.992;4.206;2023-03-15T13:16:23;2.08;;;1.33;;
58615;SDS011;44385;51.992;4.206;2023-03-15T13:18:54;1.92;;;0.80;;
58615;SDS011;44385;51.992;4.206;2023-03-15T13:21:24;2.63;;;0.85;;
58615;SDS011;44385;51.992;4.206;2023-03-15T13:23:54;3.13;;;0.80;;
58615;SDS011;44385;51.992;4.206;2023-03-15T13:26:24;3.03;;;0.87;;
58615;SDS011;44385;51.992;4.206;2023-03-15T13:28:59;4.05;;;0.90;;
58615;SDS011;44385;51.992;4.206;2023-03-15T13:31:26;2.13;;;0.75;;
58615;SDS011;44385;51.992;4.206;2023-03-15T13:33:54;3.10;;;1.05;;
58615;SDS011;44385;51.992;4.206;2023-03-15T13:36:22;5.97;;;1.30;;
58615;SDS011;44385;51.992;4.206;2023-03-15T13:38:50;2.13;;;0.70;;
58615;SDS011;44385;51.992;4.206;2023-03-15T13:41:17;2.80;;;1.10;;
58615;SDS011;44385;51.992;4.206;2023-03-15T13:43:44;3.35;;;0.80;;
58615;SDS011;44385;51.992;4.206;2023-03-15T13:46:14;2.55;;;0.60;;
58615;SDS011;44385;51.992;4.206;2023-03-15T13:48:41;2.45;;;0.82;;
58615;SDS011;44385;51.992;4.206;2023-03-15T13:51:10;1.75;;;0.90;;
58615;SDS011;44385;51.992;4.206;2023-03-15T13:53:37;1.50;;;0.90;;
58615;SDS011;44385;51.992;4.206;2023-03-15T13:56:05;1.58;;;0.70;;
58615;SDS011;44385;51.992;4.206;2023-03-15T13:58:32;2.15;;;0.75;;
58615;SDS011;44385;51.992;4.206;2023-03-15T14:00:59;2.25;;;0.90;;
58615;SDS011;44385;51.992;4.206;2023-03-15T14:03:27;2.15;;;0.95;;
58615;SDS011;44385;51.992;4.206;2023-03-15T14:05:54;1.55;;;0.70;;
58615;SDS011;44385;51.992;4.206;2023-03-15T14:08:22;3.80;;;1.10;;
58615;SDS011;44385;51.992;4.206;2023-03-15T14:10:57;3.03;;;1.20;;
58615;SDS011;44385;51.992;4.206;2023-03-15T14:13:24;2.95;;;1.20;;
58615;SDS011;44385;51.992;4.206;2023-03-15T14:15:54;1.08;;;0.98;;
58615;SDS011;44385;51.992;4.206;2023-03-15T14:18:22;3.67;;;2.20;;
58615;SDS011;44385;51.992;4.206;2023-03-15T14:20:53;3.10;;;1.30;;
58615;SDS011;44385;51.992;4.206;2023-03-15T14:23:22;1.45;;;1.10;;
58615;SDS011;44385;51.992;4.206;2023-03-15T14:25:50;3.08;;;1.50;;
58615;SDS011;44385;51.992;4.206;2023-03-15T14:28:17;1.70;;;1.38;;
58615;SDS011;44385;51.992;4.206;2023-03-15T14:30:49;2.70;;;1.20;;
58615;SDS011;44385;51.992;4.206;2023-03-15T14:33:21;2.53;;;1.10;;
58615;SDS011;44385;51.992;4.206;2023-03-15T14:35:51;1.95;;;0.98;;
58615;SDS011;44385;51.992;4.206;2023-03-15T14:38:20;3.05;;;1.40;;
58615;SDS011;44385;51.992;4.206;2023-03-15T14:40:47;3.85;;;1.50;;
58615;SDS011;44385;51.992;4.206;2023-03-15T14:43:14;3.38;;;1.50;;
58615;SDS011;44385;51.992;4.206;2023-03-15T14:45:41;1.98;;;1.40;;
58615;SDS011;44385;51.992;4.206;2023-03-15T14:48:10;3.28;;;1.40;;
58615;SDS011;44385;51.992;4.206;2023-03-15T14:50:37;2.63;;;1.30;;
58615;SDS011;44385;51.992;4.206;2023-03-15T14:53:05;2.95;;;1.65;;
58615;SDS011;44385;51.992;4.206;2023-03-15T14:55:34;1.58;;;1.48;;
58615;SDS011;44385;51.992;4.206;2023-03-15T14:58:00;1.77;;;1.50;;
58615;SDS011;44385;51.992;4.206;2023-03-15T15:00:27;1.60;;;1.50;;
58615;SDS011;44385;51.992;4.206;2023-03-15T15:02:54;1.90;;;1.67;;
58615;SDS011;44385;51.992;4.206;2023-03-15T15:05:22;3.00;;;1.42;;
58615;SDS011;44385;51.992;4.206;2023-03-15T15:07:49;2.33;;;1.60;;